createdAt,value
2019-05-05T00:00:44.620Z,99823.31
2019-05-05T00:03:59.163Z,99830.09
2019-05-05T00:07:04.419Z,99838.98
2019-05-05T00:10:10.467Z,99844.90
2019-05-05T00:13:25.961Z,99847.55
2019-05-05T00:16:44.626Z,99840.42
2019-05-05T00:19:50.150Z,99840.42
2019-05-05T00:22:54.632Z,99845.36
2019-05-05T00:25:58.369Z,99839.20
2019-05-05T00:29:04.344Z,99835.73
2019-05-05T00:32:08.030Z,99838.50
2019-05-05T00:35:11.485Z,99841.86
2019-05-05T00:38:14.937Z,99849.57
2019-05-05T00:41:18.437Z,99850.78
2019-05-05T00:44:21.937Z,99845.12
2019-05-05T00:47:45.047Z,99841.97
2019-05-05T00:50:51.689Z,99844.77
2019-05-05T00:53:55.485Z,99860.28
2019-05-05T00:56:59.169Z,99857.63
2019-05-05T01:00:04.968Z,99860.90
2019-05-05T01:03:08.036Z,99862.80
2019-05-05T01:06:25.438Z,99870.29
2019-05-05T01:09:30.193Z,99879.45
2019-05-05T01:12:34.900Z,99882.33
2019-05-05T01:15:38.411Z,99882.68
2019-05-05T01:18:41.905Z,99885.91
2019-05-05T01:21:45.527Z,99894.25
2019-05-05T01:24:49.122Z,99896.52
2019-05-05T01:27:54.555Z,99900.98
2019-05-05T01:31:01.767Z,99901.81
2019-05-05T01:34:10.782Z,99908.20
2019-05-05T01:37:25.556Z,99925.42
2019-05-05T01:40:35.448Z,99924.59
2019-05-05T01:43:38.833Z,99923.85
2019-05-05T01:46:44.401Z,99930.36
2019-05-05T01:49:47.648Z,99926.39
2019-05-05T01:52:51.146Z,99929.62
2019-05-05T01:55:54.643Z,99936.13
2019-05-05T01:58:58.173Z,99944.47
2019-05-05T02:02:01.664Z,99947.13
2019-05-05T02:05:05.317Z,99950.35
2019-05-05T02:08:09.866Z,99942.05
2019-05-05T02:11:15.658Z,99951.54
2019-05-05T02:14:19.232Z,99964.18
2019-05-05T02:17:24.709Z,99967.08
2019-05-05T02:20:59.084Z,99972.73
2019-05-05T02:24:02.599Z,99971.41
2019-05-05T02:27:06.097Z,99974.17
2019-05-05T02:30:29.898Z,99965.36
2019-05-05T02:33:38.090Z,99970.55
2019-05-05T02:36:41.605Z,99984.02
2019-05-05T02:39:57.215Z,99995.02
2019-05-05T02:42:50.462Z,100000.78
2019-05-05T02:46:17.937Z,100004.00
2019-05-05T02:49:21.342Z,100000.42
2019-05-05T02:52:24.822Z,99998.70
2019-05-05T02:55:28.297Z,100001.36
2019-05-05T02:58:33.848Z,100007.98
2019-05-05T03:01:44.638Z,100015.21
2019-05-05T03:04:48.345Z,100032.80
2019-05-05T03:07:51.840Z,100041.09
2019-05-05T03:10:55.262Z,100047.97
2019-05-05T03:13:58.847Z,100047.72
2019-05-05T03:17:04.783Z,100040.37
2019-05-05T03:20:08.223Z,100036.98
2019-05-05T03:23:13.596Z,100036.98
2019-05-05T03:26:16.922Z,100040.37
2019-05-05T03:29:21.225Z,100046.25
2019-05-05T03:32:25.638Z,100052.05
2019-05-05T03:35:29.270Z,100051.77
2019-05-05T03:38:33.895Z,100058.17
2019-05-05T03:41:51.951Z,100062.15
2019-05-05T03:45:01.589Z,100063.11
2019-05-05T03:48:06.209Z,100062.36
2019-05-05T03:51:18.893Z,100064.66
2019-05-05T03:54:17.113Z,100071.28
2019-05-05T03:57:24.621Z,100074.68
2019-05-05T04:01:15.083Z,100073.92
2019-05-05T04:04:29.740Z,100072.60
2019-05-05T04:07:33.506Z,100076.58
2019-05-05T04:10:36.997Z,100081.02
2019-05-05T04:13:40.499Z,100082.09
2019-05-05T04:16:50.666Z,100080.19
2019-05-05T04:19:54.927Z,100082.95
2019-05-05T04:22:58.487Z,100089.06
2019-05-05T04:26:03.808Z,100090.39
2019-05-05T04:29:07.295Z,100094.97
2019-05-05T04:32:10.796Z,100094.97
2019-05-05T04:35:14.304Z,100095.33
2019-05-05T04:38:17.794Z,100091.86
2019-05-05T04:41:24.417Z,100099.16
2019-05-05T04:44:27.683Z,100105.20
2019-05-05T04:47:34.322Z,100105.67
2019-05-05T04:50:48.103Z,100106.53
2019-05-05T04:54:09.540Z,100110.97
2019-05-05T04:57:14.849Z,100109.65
2019-05-05T05:00:18.145Z,100107.00
2019-05-05T05:03:50.036Z,100116.73
2019-05-05T05:06:55.045Z,100118.06
2019-05-05T05:09:58.540Z,100123.96
2019-05-05T05:13:02.052Z,100124.89
2019-05-05T05:16:05.552Z,100130.95
2019-05-05T05:19:09.043Z,100133.23
2019-05-05T05:22:13.694Z,100146.27
2019-05-05T05:25:17.184Z,100145.16
2019-05-05T05:28:20.661Z,100147.05
2019-05-05T05:31:24.537Z,100145.36
2019-05-05T05:34:28.108Z,100147.55
2019-05-05T05:37:31.594Z,100147.41
2019-05-05T05:40:49.851Z,100152.34
2019-05-05T05:44:15.527Z,100161.83
2019-05-05T05:47:33.920Z,100160.89
2019-05-05T05:50:41.794Z,100165.80
2019-05-05T05:53:46.328Z,100176.19
2019-05-05T05:56:49.844Z,100181.84
2019-05-05T05:59:54.856Z,100182.45
2019-05-05T06:02:58.473Z,100183.30
2019-05-05T06:06:01.979Z,100186.42
2019-05-05T06:09:05.861Z,100187.75
2019-05-05T06:12:09.309Z,100183.41
2019-05-05T06:15:14.230Z,100194.00
2019-05-05T06:18:18.828Z,100200.63
2019-05-05T06:21:24.073Z,100200.13
2019-05-05T06:24:27.593Z,100205.42
2019-05-05T06:27:31.098Z,100213.87
2019-05-05T06:30:34.592Z,100219.17
2019-05-05T06:33:39.211Z,100217.34
2019-05-05T06:36:44.471Z,100216.88
2019-05-05T06:39:49.705Z,100211.95
2019-05-05T06:43:14.023Z,100213.48
2019-05-05T06:46:21.128Z,100215.92
2019-05-05T06:49:24.651Z,100215.56
2019-05-05T06:52:40.923Z,100219.07
2019-05-05T06:55:34.102Z,100220.86
2019-05-05T06:58:38.770Z,100223.97
2019-05-05T07:01:44.155Z,100221.22
2019-05-05T07:04:47.356Z,100222.55
2019-05-05T07:07:50.811Z,100222.55
2019-05-05T07:10:54.891Z,100220.49
2019-05-05T07:13:58.421Z,100223.87
2019-05-05T07:17:01.958Z,100216.78
2019-05-05T07:20:05.777Z,100226.52
2019-05-05T07:23:10.276Z,100227.69
2019-05-05T07:26:14.374Z,100234.11
2019-05-05T07:29:18.201Z,100236.09
2019-05-05T07:32:21.709Z,100237.67
2019-05-05T07:35:34.713Z,100232.17
2019-05-05T07:38:38.209Z,100236.41
2019-05-05T07:41:41.700Z,100232.43
2019-05-05T07:44:45.134Z,100234.88
2019-05-05T07:47:48.719Z,100238.25
2019-05-05T07:50:59.727Z,100240.33
2019-05-05T07:53:57.577Z,100238.41
2019-05-05T07:57:01.054Z,100236.97
2019-05-05T08:00:05.931Z,100240.48
2019-05-05T08:03:09.409Z,100243.89
2019-05-05T08:06:14.563Z,100248.59
2019-05-05T08:09:21.797Z,100248.59
2019-05-05T08:12:25.033Z,100249.34
2019-05-05T08:15:29.264Z,100251.03
2019-05-05T08:18:46.144Z,100254.44
2019-05-05T08:21:49.724Z,100252.51
2019-05-05T08:25:01.502Z,100251.94
2019-05-05T08:28:18.867Z,100254.95
2019-05-05T08:31:44.202Z,100256.64
2019-05-05T08:34:57.464Z,100256.64
2019-05-05T08:37:54.221Z,100261.84
2019-05-05T08:40:59.064Z,100262.70
2019-05-05T08:44:03.687Z,100267.43
2019-05-05T08:47:08.304Z,100267.79
2019-05-05T08:50:13.607Z,100269.48
2019-05-05T08:53:16.956Z,100263.21
2019-05-05T08:56:20.457Z,100268.91
2019-05-05T08:59:24.305Z,100268.05
2019-05-05T09:02:27.871Z,100266.15
2019-05-05T09:05:31.374Z,100275.33
2019-05-05T09:08:34.893Z,100268.70
2019-05-05T09:11:39.411Z,100262.89
2019-05-05T09:14:44.720Z,100260.24
2019-05-05T09:17:48.146Z,100262.07
2019-05-05T09:20:53.746Z,100253.36
2019-05-05T09:24:02.606Z,100254.06
2019-05-05T09:27:14.189Z,100260.09
2019-05-05T09:30:34.191Z,100266.62
2019-05-05T09:33:38.722Z,100270.08
2019-05-05T09:36:43.952Z,100270.23
2019-05-05T09:39:47.562Z,100270.23
2019-05-05T09:42:53.571Z,100273.25
2019-05-05T09:45:57.021Z,100274.89
2019-05-05T09:49:00.511Z,100270.34
2019-05-05T09:52:05.155Z,100278.55
2019-05-05T09:55:08.581Z,100282.31
2019-05-05T09:58:13.744Z,100277.73
2019-05-05T10:01:17.423Z,100281.95
2019-05-05T10:04:20.895Z,100275.90
2019-05-05T10:07:24.561Z,100282.42
2019-05-05T10:10:28.109Z,100281.20
2019-05-05T10:13:33.211Z,100290.48
2019-05-05T10:16:37.251Z,100293.23
2019-05-05T10:19:40.839Z,100293.23
2019-05-05T10:22:45.367Z,100298.44
2019-05-05T10:25:50.747Z,100289.73
2019-05-05T10:28:54.343Z,100287.08
2019-05-05T10:31:58.997Z,100291.34
2019-05-05T10:35:04.530Z,100297.47
2019-05-05T10:38:08.209Z,100292.92
2019-05-05T10:41:13.549Z,100289.91
2019-05-05T10:44:17.057Z,100286.30
2019-05-05T10:47:21.579Z,100291.13
2019-05-05T10:50:25.077Z,100287.02
2019-05-05T10:53:28.584Z,100278.13
2019-05-05T10:56:32.000Z,100276.62
2019-05-05T10:59:35.494Z,100277.34
2019-05-05T11:02:38.926Z,100273.02
2019-05-05T11:05:44.556Z,100269.39
2019-05-05T11:08:47.789Z,100274.23
2019-05-05T11:11:51.221Z,100273.27
2019-05-05T11:14:54.655Z,100272.80
2019-05-05T11:17:58.252Z,100268.76
2019-05-05T11:21:03.899Z,100280.70
2019-05-05T11:24:06.863Z,100285.53
2019-05-05T11:27:10.362Z,100277.69
2019-05-05T11:30:18.849Z,100279.73
2019-05-05T11:33:37.582Z,100270.98
2019-05-05T11:36:55.386Z,100272.31
2019-05-05T11:39:59.792Z,100265.30
2019-05-05T11:43:04.629Z,100257.13
2019-05-05T11:46:10.717Z,100264.50
2019-05-05T11:49:14.559Z,100266.08
2019-05-05T11:52:19.663Z,100268.09
2019-05-05T11:55:24.905Z,100272.31
2019-05-05T11:58:29.634Z,100270.98
2019-05-05T12:01:34.135Z,100272.13
2019-05-05T12:04:37.560Z,100271.20
2019-05-05T12:07:43.673Z,100275.75
2019-05-05T12:10:58.137Z,100279.02
2019-05-05T12:14:03.838Z,100280.34
2019-05-05T12:17:08.448Z,100281.27
2019-05-05T12:20:13.620Z,100275.03
2019-05-05T12:23:17.249Z,100274.78
2019-05-05T12:26:38.002Z,100273.10
2019-05-05T12:29:47.048Z,100269.48
2019-05-05T12:32:50.532Z,100268.76
2019-05-05T12:35:54.117Z,100264.42
2019-05-05T12:38:57.525Z,100275.75
2019-05-05T12:42:01.001Z,100275.75
2019-05-05T12:45:07.536Z,100267.44
2019-05-05T12:48:18.568Z,100267.80
2019-05-05T12:51:24.057Z,100262.84
2019-05-05T12:54:29.596Z,100261.42
2019-05-05T12:57:34.330Z,100259.52
2019-05-05T13:00:40.673Z,100256.40
2019-05-05T13:03:45.197Z,100246.51
2019-05-05T13:06:48.685Z,100252.92
2019-05-05T13:09:54.375Z,100242.71
2019-05-05T13:12:57.332Z,100252.39
2019-05-05T13:16:00.959Z,100265.66
2019-05-05T13:19:09.076Z,100265.16
2019-05-05T13:22:28.151Z,100260.03
2019-05-05T13:25:55.910Z,100265.55
2019-05-05T13:28:55.487Z,100271.79
2019-05-05T13:31:59.092Z,100267.45
2019-05-05T13:35:04.033Z,100268.77
2019-05-05T13:38:07.650Z,100277.48
2019-05-05T13:41:11.052Z,100285.05
2019-05-05T13:44:21.722Z,100293.41
2019-05-05T13:47:25.166Z,100284.13
2019-05-05T13:50:40.575Z,100292.08
2019-05-05T13:53:45.134Z,100288.20
2019-05-05T13:56:48.601Z,100292.30
2019-05-05T13:59:52.121Z,100284.70
2019-05-05T14:02:55.594Z,100286.02
2019-05-05T14:05:59.100Z,100283.01
2019-05-05T14:09:04.370Z,100278.06
2019-05-05T14:12:07.950Z,100279.39
2019-05-05T14:15:15.645Z,100283.73
2019-05-05T14:18:20.075Z,100285.05
2019-05-05T14:21:24.501Z,100279.75
2019-05-05T14:24:34.631Z,100273.51
2019-05-05T14:27:39.182Z,100278.42
2019-05-05T14:30:51.349Z,100278.46
2019-05-05T14:33:56.829Z,100283.45
2019-05-05T14:37:18.107Z,100277.78
2019-05-05T14:40:23.702Z,100272.11
2019-05-05T14:43:28.220Z,100280.07
2019-05-05T14:46:31.736Z,100277.63
2019-05-05T14:52:37.696Z,100285.23
2019-05-05T14:55:44.092Z,100285.55
2019-05-05T14:58:48.598Z,100284.59
2019-05-05T15:01:54.168Z,100284.13
2019-05-05T15:04:59.968Z,100290.25
2019-05-05T15:08:34.446Z,100290.75
2019-05-05T15:11:48.267Z,100287.70
2019-05-05T15:14:51.759Z,100290.36
2019-05-05T15:17:55.214Z,100287.70
2019-05-05T15:20:58.689Z,100291.08
2019-05-05T15:24:02.091Z,100290.00
2019-05-05T15:27:06.614Z,100294.59
2019-05-05T15:30:11.546Z,100289.75
2019-05-05T15:33:15.030Z,100293.12
2019-05-05T15:36:18.546Z,100295.52
2019-05-05T15:39:22.026Z,100296.48
2019-05-05T15:42:25.543Z,100292.40
2019-05-05T15:45:29.030Z,100303.12
2019-05-05T15:48:33.598Z,100295.27
2019-05-05T15:51:37.175Z,100287.41
2019-05-05T15:54:40.719Z,100292.61
2019-05-05T15:57:45.027Z,100300.11
2019-05-05T16:00:48.599Z,100297.16
2019-05-05T16:03:54.200Z,100294.05
2019-05-05T16:06:57.230Z,100291.75
2019-05-05T16:10:03.969Z,100290.82
2019-05-05T16:13:07.116Z,100298.39
2019-05-05T16:16:29.112Z,100296.12
2019-05-05T16:19:45.985Z,100289.49
2019-05-05T16:23:20.369Z,100288.27
2019-05-05T16:26:24.569Z,100287.41
2019-05-05T16:29:28.202Z,100284.76
2019-05-05T16:32:33.376Z,100286.09
2019-05-05T16:35:36.856Z,100283.08
2019-05-05T16:38:40.275Z,100283.80
2019-05-05T16:41:43.857Z,100277.77
2019-05-05T16:44:47.376Z,100277.77
2019-05-05T16:47:50.787Z,100276.80
2019-05-05T16:50:54.251Z,100278.38
2019-05-05T16:53:59.923Z,100280.93
2019-05-05T16:57:04.004Z,100277.34
2019-05-05T17:00:09.323Z,100277.81
2019-05-05T17:03:13.489Z,100283.97
2019-05-05T17:06:17.307Z,100284.91
2019-05-05T17:09:24.041Z,100283.22
2019-05-05T17:12:27.728Z,100286.12
2019-05-05T17:15:45.828Z,100280.93
2019-05-05T17:19:00.440Z,100286.84
2019-05-05T17:22:10.464Z,100294.19
2019-05-05T17:25:14.037Z,100279.24
2019-05-05T17:28:18.643Z,100284.55
2019-05-05T17:31:24.239Z,100284.91
2019-05-05T17:34:27.495Z,100285.52
2019-05-05T17:37:33.526Z,100288.99
2019-05-05T17:40:56.254Z,100286.45
2019-05-05T17:44:06.037Z,100287.95
2019-05-05T17:47:29.541Z,100289.86
2019-05-05T17:50:55.391Z,100291.54
2019-05-05T17:54:16.726Z,100290.61
2019-05-05T17:57:20.257Z,100291.64
2019-05-05T18:00:24.799Z,100300.00
2019-05-05T18:03:28.350Z,100303.02
2019-05-05T18:06:39.850Z,100305.56
2019-05-05T18:10:07.264Z,100305.56
2019-05-05T18:13:19.933Z,100299.28
2019-05-05T18:16:26.996Z,100306.13
2019-05-05T18:19:30.527Z,100309.18
2019-05-05T18:22:34.344Z,100316.17
2019-05-05T18:25:39.904Z,100315.46
2019-05-05T18:28:45.457Z,100312.55
2019-05-05T18:31:49.776Z,100308.58
2019-05-05T18:34:54.552Z,100317.39
2019-05-05T18:37:58.204Z,100314.23
2019-05-05T18:41:05.919Z,100324.59
2019-05-05T18:44:14.437Z,100324.49
2019-05-05T18:47:19.131Z,100326.68
2019-05-05T18:50:24.388Z,100331.48
2019-05-05T18:53:28.301Z,100326.78
2019-05-05T18:56:31.906Z,100335.47
2019-05-05T18:59:35.551Z,100333.20
2019-05-05T19:02:58.140Z,100338.13
2019-05-05T19:06:06.403Z,100335.47
2019-05-05T19:09:13.615Z,100341.73
2019-05-05T19:12:19.103Z,100342.49
2019-05-05T19:15:24.396Z,100346.47
2019-05-05T19:18:27.854Z,100346.58
2019-05-05T19:21:35.960Z,100351.39
2019-05-05T19:24:39.460Z,100348.02
2019-05-05T19:27:43.684Z,100353.31
2019-05-05T19:30:48.366Z,100343.67
2019-05-05T19:33:55.920Z,100350.88
2019-05-05T19:36:59.623Z,100347.86
2019-05-05T19:40:05.827Z,100353.17
2019-05-05T19:43:08.448Z,100347.47
2019-05-05T19:46:15.792Z,100358.08
2019-05-05T19:49:20.243Z,100358.68
2019-05-05T19:52:24.069Z,100356.03
2019-05-05T19:55:27.582Z,100364.34
2019-05-05T19:58:31.075Z,100359.61
2019-05-05T20:01:37.692Z,100361.33
2019-05-05T20:04:40.938Z,100368.90
2019-05-05T20:07:45.473Z,100365.16
2019-05-05T20:10:48.894Z,100365.63
2019-05-05T20:14:06.158Z,100363.83
2019-05-05T20:17:06.347Z,100356.23
2019-05-05T20:20:09.752Z,100358.84
2019-05-05T20:23:13.731Z,100363.49
2019-05-05T20:26:17.241Z,100364.45
2019-05-05T20:29:23.845Z,100363.70
2019-05-05T20:32:34.180Z,100362.22
2019-05-05T20:35:49.870Z,100364.50
2019-05-05T20:38:54.919Z,100361.59
2019-05-05T20:41:58.386Z,100364.42
2019-05-05T20:45:04.027Z,100364.52
2019-05-05T20:48:07.348Z,100367.38
2019-05-05T20:51:10.863Z,100366.41
2019-05-05T20:54:14.407Z,100370.13
2019-05-05T20:57:17.837Z,100367.58
2019-05-05T21:00:21.242Z,100367.69
2019-05-05T21:03:24.736Z,100367.42
2019-05-05T21:06:29.267Z,100367.42
2019-05-05T21:09:34.537Z,100368.75
2019-05-05T21:12:42.190Z,100372.36
2019-05-05T21:15:45.019Z,100372.36
2019-05-05T21:18:48.722Z,100364.61
2019-05-05T21:21:54.607Z,100369.16
2019-05-05T21:24:58.467Z,100368.42
2019-05-05T21:28:03.623Z,100368.42
2019-05-05T21:31:07.101Z,100371.64
2019-05-05T21:34:10.600Z,100368.63
2019-05-05T21:37:15.130Z,100373.93
2019-05-05T21:40:20.914Z,100379.80
2019-05-05T21:43:24.371Z,100379.23
2019-05-05T21:46:27.871Z,100376.78
2019-05-05T21:49:31.384Z,100377.75
2019-05-05T21:52:41.087Z,100383.05
2019-05-05T21:56:04.217Z,100380.59
2019-05-05T21:59:07.798Z,100380.59
2019-05-05T22:02:15.178Z,100378.51
2019-05-05T22:05:18.166Z,100375.50
2019-05-05T22:08:23.848Z,100377.78
2019-05-05T22:11:26.961Z,100379.11
2019-05-05T22:14:30.510Z,100377.48
2019-05-05T22:17:36.338Z,100378.34
2019-05-05T22:20:44.922Z,100381.00
2019-05-05T22:24:06.352Z,100379.31
2019-05-05T22:27:09.901Z,100374.11
2019-05-05T22:30:14.205Z,100370.59
2019-05-05T22:33:17.756Z,100375.53
2019-05-05T22:36:21.234Z,100371.56
2019-05-05T22:39:24.757Z,100372.52
2019-05-05T22:42:28.240Z,100370.06
2019-05-05T22:45:31.757Z,100369.11
2019-05-05T22:48:35.239Z,100363.55
2019-05-05T22:51:38.858Z,100364.77
2019-05-05T22:54:44.277Z,100365.70
2019-05-05T22:57:47.582Z,100367.42
2019-05-05T23:00:51.088Z,100362.31
2019-05-05T23:04:28.724Z,100361.95
2019-05-05T23:07:34.964Z,100363.28
2019-05-05T23:10:38.557Z,100362.98
2019-05-05T23:13:41.970Z,100361.55
2019-05-05T23:16:47.231Z,100359.87
2019-05-05T23:20:04.823Z,100359.50
2019-05-05T23:23:17.909Z,100363.67
2019-05-05T23:26:22.382Z,100361.02
2019-05-05T23:29:26.612Z,100360.06
2019-05-05T23:32:30.312Z,100357.88
2019-05-05T23:35:34.447Z,100361.95
2019-05-05T23:38:38.020Z,100363.28
2019-05-05T23:41:41.441Z,100366.52
2019-05-05T23:44:45.016Z,100362.55
2019-05-05T23:47:49.421Z,100360.27
2019-05-05T23:50:54.165Z,100354.97
2019-05-05T23:53:58.802Z,100358.21
2019-05-05T23:57:04.567Z,100357.81
